Time;durP1;ratioP1;P1;durP2;ratioP2;P2;SDS_P1;SDS_P2;PMS_P1;PMS_P2;Temp;Humidity;BMP_temperature;BMP_pressure;BME280_temperature;BME280_humidity;BME280_pressure;Samples;Min_cycle;Max_cycle;Signal;HPM_P1;HPM_P2
2024/01/13 00:01:28;;;;;;;;;;;;;;;0.32;100.00;102370.31;4863486;29;20650;-76
2024/01/13 00:03:53;;;;;;;;;;;;;;;0.19;100.00;102368.41;4877375;23;20409;-76
2024/01/13 00:06:21;;;;;;;;;;;;;;;0.11;100.00;102370.66;4881152;29;19928;-76
2024/01/13 00:08:47;;;;;;;;;;;;;;;0.09;100.00;102372.56;4882134;29;19927;-76
2024/01/13 00:11:12;;;;;;;;;;;;;;;0.10;100.00;102367.16;4881107;29;19924;-76
2024/01/13 00:13:37;;;;;;;;;;;;;;;0.08;100.00;102365.56;4881203;29;19934;-76
2024/01/13 00:16:02;;;;;;;;;;;;;;;0.10;100.00;102358.34;4881971;29;19924;-76
2024/01/13 00:18:28;;;;;;;;;;;;;;;0.08;100.00;102358.44;4880091;29;20303;-76
2024/01/13 00:20:53;;;;;;;;;;;;;;;0.16;100.00;102357.16;4881485;29;19923;-76
2024/01/13 00:23:22;;;;;;;;;;;;;;;0.18;100.00;102358.75;4882483;29;20421;-76
2024/01/13 00:25:47;;;;;;;;;;;;;;;0.19;100.00;102355.16;4880413;29;19930;-75
2024/01/13 00:28:12;;;;;;;;;;;;;;;0.16;100.00;102351.84;4881834;29;20292;-76
2024/01/13 00:30:38;;;;;;;;;;;;;;;0.17;100.00;102348.28;4882559;29;20000;-76
2024/01/13 00:33:04;;;;;;;;;;;;;;;0.14;100.00;102351.94;4879677;29;19935;-76
2024/01/13 00:35:29;;;;;;;;;;;;;;;0.14;100.00;102344.84;4881645;29;19924;-76
2024/01/13 00:37:55;;;;;;;;;;;;;;;0.17;100.00;102337.69;4882814;29;19931;-76
2024/01/13 00:40:20;;;;;;;;;;;;;;;0.18;100.00;102334.09;4876365;29;19928;-76
2024/01/13 00:42:46;;;;;;;;;;;;;;;0.17;100.00;102337.69;4882099;29;19928;-75
2024/01/13 00:45:12;;;;;;;;;;;;;;;0.31;100.00;102335.03;4884052;29;19928;-75
2024/01/13 00:47:38;;;;;;;;;;;;;;;0.27;100.00;102337.00;4885491;29;19976;-75
2024/01/13 00:50:03;;;;;;;;;;;;;;;0.25;100.00;102320.38;4901405;29;19919;-75
2024/01/13 00:52:28;;;;;;;;;;;;;;;0.24;100.00;102328.41;4894566;29;19928;-75
2024/01/13 00:54:54;;;;;;;;;;;;;;;0.20;100.00;102325.09;4882901;29;19967;-75
2024/01/13 00:57:19;;;;;;;;;;;;;;;0.15;100.00;102324.50;4881756;29;19928;-75
2024/01/13 00:59:52;;;;;;;;;;;;;;;0.18;100.00;102331.44;4881129;29;19923;-75
2024/01/13 01:02:18;;;;;;;;;;;;;;;0.11;100.00;102322.97;4882274;23;19928;-75
2024/01/13 01:04:43;;;;;;;;;;;;;;;0.13;100.00;102316.66;4899908;29;19931;-75
2024/01/13 01:07:12;;;;;;;;;;;;;;;0.22;100.00;102319.69;4899004;29;19927;-73
2024/01/13 01:09:40;;;;;;;;;;;;;;;0.32;100.00;102320.84;4896448;29;19923;-75
2024/01/13 01:12:11;;;;;;;;;;;;;;;0.42;100.00;102318.50;4897489;29;19947;-77
2024/01/13 01:14:37;;;;;;;;;;;;;;;0.40;100.00;102313.28;4898925;29;19927;-74
2024/01/13 01:17:02;;;;;;;;;;;;;;;0.43;100.00;102312.25;4899171;29;20380;-76
2024/01/13 01:19:28;;;;;;;;;;;;;;;0.37;100.00;102308.16;4911445;29;19914;-76
2024/01/13 01:21:54;;;;;;;;;;;;;;;0.25;100.00;102309.78;4915372;29;19911;-76
2024/01/13 01:24:20;;;;;;;;;;;;;;;0.23;100.00;102310.81;4900164;29;20279;-77
2024/01/13 01:26:45;;;;;;;;;;;;;;;0.23;100.00;102305.50;4900700;29;19923;-76
2024/01/13 01:29:10;;;;;;;;;;;;;;;0.28;100.00;102293.69;4900425;29;20014;-76
2024/01/13 01:31:35;;;;;;;;;;;;;;;0.27;100.00;102297.28;4900647;29;19920;-75
2024/01/13 01:34:01;;;;;;;;;;;;;;;0.30;100.00;102290.97;4898777;29;19996;-76
2024/01/13 01:36:26;;;;;;;;;;;;;;;0.27;100.00;102289.31;4897839;29;19927;-76
2024/01/13 01:38:51;;;;;;;;;;;;;;;0.23;100.00;102281.66;4898217;29;20054;-75
2024/01/13 01:41:16;;;;;;;;;;;;;;;0.25;100.00;102277.13;4900061;29;20400;-76
2024/01/13 01:43:42;;;;;;;;;;;;;;;0.25;100.00;102293.03;4899902;29;20387;-74
2024/01/13 01:46:09;;;;;;;;;;;;;;;0.23;100.00;102282.53;4883125;29;20368;-74
2024/01/13 01:48:37;;;;;;;;;;;;;;;0.20;100.00;102284.50;4904390;29;19946;-75
2024/01/13 01:51:03;;;;;;;;;;;;;;;0.17;100.00;102280.25;4919443;29;19912;-75
2024/01/13 01:53:28;;;;;;;;;;;;;;;0.14;100.00;102270.72;4912481;29;20022;-75
2024/01/13 01:55:54;;;;;;;;;;;;;;;0.26;100.00;102270.88;4900652;29;19967;-76
2024/01/13 01:58:19;;;;;;;;;;;;;;;0.21;100.00;102262.38;4899242;29;19923;-76
2024/01/13 02:00:44;;;;;;;;;;;;;;;0.27;100.00;102267.31;4882975;29;19979;-76
2024/01/13 02:03:10;;;;;;;;;;;;;;;0.34;100.00;102267.78;4897393;29;19927;-76
2024/01/13 02:05:35;;;;;;;;;;;;;;;0.33;100.00;102266.94;4898556;29;20350;-76
2024/01/13 02:08:00;;;;;;;;;;;;;;;0.47;100.00;102263.41;4882687;29;19923;-75
2024/01/13 02:10:25;;;;;;;;;;;;;;;0.39;100.00;102258.59;4898276;29;19939;-75
2024/01/13 02:12:51;;;;;;;;;;;;;;;0.44;100.00;102250.38;4900325;29;19924;-76
2024/01/13 02:15:16;;;;;;;;;;;;;;;0.54;100.00;102254.13;4901503;29;19924;-76
2024/01/13 02:17:43;;;;;;;;;;;;;;;0.44;100.00;102245.91;4901083;29;19934;-75
2024/01/13 02:20:09;;;;;;;;;;;;;;;0.54;100.00;102242.66;4917369;29;19932;-75
2024/01/13 02:22:37;;;;;;;;;;;;;;;0.41;100.00;102243.44;4918417;29;19912;-75
2024/01/13 02:25:03;;;;;;;;;;;;;;;0.51;100.00;102232.28;4901763;29;19943;-75
2024/01/13 02:27:28;;;;;;;;;;;;;;;0.40;100.00;102231.16;4899807;29;20380;-75
2024/01/13 02:29:54;;;;;;;;;;;;;;;0.47;100.00;102233.44;4899669;29;19971;-75
2024/01/13 02:32:20;;;;;;;;;;;;;;;0.44;100.00;102226.53;4893742;29;19931;-76
2024/01/13 02:34:45;;;;;;;;;;;;;;;0.32;100.00;102220.19;4898332;29;19928;-76
2024/01/13 02:37:10;;;;;;;;;;;;;;;0.44;100.00;102218.59;4898642;29;20407;-75
2024/01/13 02:39:35;;;;;;;;;;;;;;;0.56;100.00;102214.28;4879751;29;20582;-75
2024/01/13 02:42:01;;;;;;;;;;;;;;;0.59;100.00;102211.44;4887862;23;19939;-75
2024/01/13 02:44:26;;;;;;;;;;;;;;;0.43;100.00;102207.13;4899497;29;19948;-76
2024/01/13 02:46:51;;;;;;;;;;;;;;;0.57;100.00;102210.69;4899355;29;20025;-75
2024/01/13 02:49:16;;;;;;;;;;;;;;;0.54;100.00;102205.56;4899468;29;20050;-75
2024/01/13 02:51:42;;;;;;;;;;;;;;;0.57;100.00;102200.09;4897880;29;20311;-76
2024/01/13 02:54:07;;;;;;;;;;;;;;;0.55;100.00;102179.00;4895731;29;19927;-76
2024/01/13 02:56:33;;;;;;;;;;;;;;;0.40;100.00;102185.28;4896980;29;19935;-75
2024/01/13 02:58:59;;;;;;;;;;;;;;;0.40;100.00;102180.81;4896899;29;19958;-75
2024/01/13 03:03:52;;;;;;;;;;;;;;;0.44;100.00;102155.00;4881346;29;19936;-76
2024/01/13 03:06:18;;;;;;;;;;;;;;;0.47;100.00;102152.13;4886134;29;19931;-76
2024/01/13 03:08:44;;;;;;;;;;;;;;;0.53;100.00;102146.44;4885004;29;19931;-75
2024/01/13 03:11:17;;;;;;;;;;;;;;;0.48;100.00;102137.09;4877767;29;19924;-75
2024/01/13 03:13:43;;;;;;;;;;;;;;;0.48;100.00;102137.09;4872830;29;19924;-76
2024/01/13 03:16:08;;;;;;;;;;;;;;;0.68;100.00;102143.75;4883074;29;19932;-76
2024/01/13 03:18:33;;;;;;;;;;;;;;;0.55;100.00;102136.59;4881651;29;20277;-75
2024/01/13 03:20:59;;;;;;;;;;;;;;;0.51;100.00;102144.84;4884823;29;20311;-76
2024/01/13 03:23:24;;;;;;;;;;;;;;;0.52;100.00;102151.84;4881410;29;19923;-75
2024/01/13 03:25:49;;;;;;;;;;;;;;;0.43;100.00;102148.00;4889210;29;19920;-76
2024/01/13 03:28:14;;;;;;;;;;;;;;;0.43;100.00;102134.75;4881479;29;19923;-76
2024/01/13 03:30:42;;;;;;;;;;;;;;;0.59;100.00;102127.50;4887595;29;19971;-76
2024/01/13 03:33:08;;;;;;;;;;;;;;;0.60;100.00;102126.56;4882308;29;19924;-76
2024/01/13 03:35:33;;;;;;;;;;;;;;;0.48;100.00;102115.91;4881306;29;19927;-75
2024/01/13 03:37:58;;;;;;;;;;;;;;;0.41;100.00;102113.63;4884226;29;19938;-76
2024/01/13 03:40:23;;;;;;;;;;;;;;;0.34;100.00;102112.34;4885739;29;19927;-76
2024/01/13 03:42:51;;;;;;;;;;;;;;;0.48;100.00;102113.25;4881392;29;19923;-76
2024/01/13 03:45:16;;;;;;;;;;;;;;;0.55;100.00;102099.50;4886735;29;19936;-75
2024/01/13 03:47:43;;;;;;;;;;;;;;;0.62;100.00;102094.66;4879625;29;20392;-75
2024/01/13 03:50:09;;;;;;;;;;;;;;;0.72;100.00;102098.38;4879581;29;19987;-75
2024/01/13 03:52:34;;;;;;;;;;;;;;;0.59;100.00;102097.50;4887214;29;19977;-75
2024/01/13 03:54:59;;;;;;;;;;;;;;;0.62;100.00;102099.94;4883036;29;20399;-76
2024/01/13 03:57:24;;;;;;;;;;;;;;;0.47;100.00;102095.66;4887407;29;20373;-75
2024/01/13 03:59:50;;;;;;;;;;;;;;;0.41;100.00;102095.09;4888423;29;20464;-76
2024/01/13 04:02:18;;;;;;;;;;;;;;;0.54;100.00;102095.16;4881290;29;20035;-76
2024/01/13 04:04:43;;;;;;;;;;;;;;;0.56;100.00;102090.59;4886892;29;20003;-76
2024/01/13 04:07:10;;;;;;;;;;;;;;;0.58;100.00;102086.06;4888381;29;19989;-76
2024/01/13 04:09:35;;;;;;;;;;;;;;;0.53;100.00;102089.97;4881998;29;19952;-76
2024/01/13 04:12:00;;;;;;;;;;;;;;;0.53;100.00;102092.63;4881739;29;19923;-76
2024/01/13 04:14:25;;;;;;;;;;;;;;;0.60;100.00;102092.13;4881380;29;20407;-76
2024/01/13 04:16:50;;;;;;;;;;;;;;;0.60;100.00;102097.41;4880375;29;19947;-76
2024/01/13 04:19:16;;;;;;;;;;;;;;;0.51;100.00;102094.50;4887968;29;19923;-76
2024/01/13 04:21:41;;;;;;;;;;;;;;;0.47;100.00;102101.78;4881755;29;19988;-76
2024/01/13 04:24:07;;;;;;;;;;;;;;;0.39;100.00;102094.34;4880567;29;19951;-76
2024/01/13 04:26:32;;;;;;;;;;;;;;;0.38;100.00;102091.81;4879934;29;20373;-76
2024/01/13 04:28:58;;;;;;;;;;;;;;;0.48;100.00;102102.66;4887984;29;19931;-76
2024/01/13 04:31:23;;;;;;;;;;;;;;;0.53;100.00;102093.44;4880368;29;20377;-76
2024/01/13 04:33:48;;;;;;;;;;;;;;;0.44;100.00;102102.84;4881456;29;20380;-76
2024/01/13 04:36:13;;;;;;;;;;;;;;;0.52;100.00;102093.56;4882749;29;20469;-76
2024/01/13 04:38:38;;;;;;;;;;;;;;;0.45;100.00;102090.44;4881415;29;20397;-75
2024/01/13 04:41:04;;;;;;;;;;;;;;;0.48;100.00;102097.34;4865978;29;20351;-75
2024/01/13 04:43:29;;;;;;;;;;;;;;;0.50;100.00;102080.41;4900387;29;19919;-77
2024/01/13 04:45:54;;;;;;;;;;;;;;;0.63;100.00;102069.84;4898674;29;19924;-75
2024/01/13 04:48:19;;;;;;;;;;;;;;;0.53;100.00;102066.13;4868391;29;19971;-75
2024/01/13 04:50:47;;;;;;;;;;;;;;;0.58;100.00;102066.66;4884813;29;19924;-75
2024/01/13 04:53:12;;;;;;;;;;;;;;;0.66;100.00;102074.09;4880960;29;19975;-75
2024/01/13 04:55:37;;;;;;;;;;;;;;;0.56;100.00;102072.06;4880206;29;20006;-75
2024/01/13 04:58:03;;;;;;;;;;;;;;;0.45;100.00;102067.47;4880302;29;19974;-75
2024/01/13 05:00:28;;;;;;;;;;;;;;;0.51;100.00;102066.19;4879063;29;20415;-75
2024/01/13 05:02:53;;;;;;;;;;;;;;;0.48;100.00;102068.22;4879323;29;20393;-75
2024/01/13 05:05:19;;;;;;;;;;;;;;;0.42;100.00;102067.66;4880031;29;19931;-75
2024/01/13 05:07:44;;;;;;;;;;;;;;;0.41;100.00;102065.94;4879224;29;19924;-76
2024/01/13 05:10:09;;;;;;;;;;;;;;;0.38;100.00;102076.75;4880901;29;20014;-74
2024/01/13 05:12:34;;;;;;;;;;;;;;;0.35;100.00;102071.66;4895890;29;19936;-75
2024/01/13 05:14:59;;;;;;;;;;;;;;;0.35;100.00;102071.66;4898760;29;19927;-75
2024/01/13 05:17:25;;;;;;;;;;;;;;;0.44;100.00;102060.47;4893001;29;20425;-75
2024/01/13 05:19:50;;;;;;;;;;;;;;;0.42;100.00;102059.72;4887209;29;20404;-75
2024/01/13 05:22:15;;;;;;;;;;;;;;;0.36;100.00;102057.44;4880543;29;20488;-75
2024/01/13 05:24:42;;;;;;;;;;;;;;;0.35;100.00;102066.38;4872485;29;20469;-75
2024/01/13 05:27:07;;;;;;;;;;;;;;;0.37;100.00;102064.44;4878544;29;19924;-75
2024/01/13 05:29:32;;;;;;;;;;;;;;;0.38;100.00;102066.16;4879776;29;19928;-75
2024/01/13 05:31:58;;;;;;;;;;;;;;;0.39;100.00;102062.56;4879468;29;20044;-75
2024/01/13 05:34:23;;;;;;;;;;;;;;;0.38;100.00;102060.00;4878741;29;20015;-75
2024/01/13 05:36:48;;;;;;;;;;;;;;;0.36;100.00;102068.03;4878978;29;19935;-79
2024/01/13 05:39:16;;;;;;;;;;;;;;;0.36;100.00;102065.41;4905571;23;19963;-76
2024/01/13 05:41:42;;;;;;;;;;;;;;;0.37;100.00;102053.84;4913639;29;19923;-75
2024/01/13 05:44:07;;;;;;;;;;;;;;;0.43;100.00;102063.22;4918413;29;19934;-74
2024/01/13 05:46:32;;;;;;;;;;;;;;;0.40;100.00;102066.06;4910068;29;19924;-78
2024/01/13 05:48:59;;;;;;;;;;;;;;;0.40;100.00;102066.91;4906040;29;19927;-78
2024/01/13 05:51:24;;;;;;;;;;;;;;;0.36;100.00;102069.84;4902104;29;19978;-78
2024/01/13 05:53:50;;;;;;;;;;;;;;;0.44;100.00;102055.16;4900052;29;19999;-77
2024/01/13 05:56:15;;;;;;;;;;;;;;;0.53;100.00;102039.63;4899454;29;19930;-77
2024/01/13 05:58:41;;;;;;;;;;;;;;;0.54;100.00;102033.34;4900421;29;20392;-78
2024/01/13 06:01:06;;;;;;;;;;;;;;;0.50;100.00;102023.91;4899597;29;20329;-77
2024/01/13 06:03:34;;;;;;;;;;;;;;;0.69;100.00;102011.16;4900375;29;19923;-77
2024/01/13 06:05:59;;;;;;;;;;;;;;;0.71;100.00;102003.06;4903355;29;19935;-77
2024/01/13 06:08:24;;;;;;;;;;;;;;;0.80;100.00;101991.00;4902775;29;19924;-77
2024/01/13 06:10:50;;;;;;;;;;;;;;;0.84;100.00;101993.34;4917057;29;19953;-77
2024/01/13 06:13:15;;;;;;;;;;;;;;;0.68;100.00;101987.38;4920535;29;19934;-77
2024/01/13 06:15:40;;;;;;;;;;;;;;;0.66;100.00;101994.56;4961284;23;20511;-78
2024/01/13 06:18:09;;;;;;;;;;;;;;;0.57;100.00;102001.34;4909630;29;19924;-78
2024/01/13 06:20:34;;;;;;;;;;;;;;;0.53;100.00;102013.13;4884654;29;19924;-78
2024/01/13 06:22:59;;;;;;;;;;;;;;;0.50;100.00;102024.75;4899288;29;19959;-78
2024/01/13 06:25:24;;;;;;;;;;;;;;;0.42;100.00;102019.97;4898087;29;19939;-78
2024/01/13 06:27:50;;;;;;;;;;;;;;;0.53;100.00;102013.13;4899703;29;19935;-78
2024/01/13 06:30:15;;;;;;;;;;;;;;;0.47;100.00;102006.41;4898016;29;19927;-77
2024/01/13 06:32:43;;;;;;;;;;;;;;;0.49;100.00;102006.31;4894039;29;19924;-77
2024/01/13 06:35:08;;;;;;;;;;;;;;;0.54;100.00;101988.31;4902309;29;19923;-77
2024/01/13 06:37:36;;;;;;;;;;;;;;;0.50;100.00;101978.88;4899960;29;19971;-78
2024/01/13 06:40:02;;;;;;;;;;;;;;;0.52;100.00;101991.06;4898928;29;20321;-78
2024/01/13 06:42:28;;;;;;;;;;;;;;;0.55;100.00;101982.03;4901482;29;19930;-78
2024/01/13 06:44:56;;;;;;;;;;;;;;;0.68;100.00;101971.47;4903065;29;20288;-78
2024/01/13 06:47:22;;;;;;;;;;;;;;;0.74;100.00;101956.00;4895423;29;20810;-78
2024/01/13 06:49:48;;;;;;;;;;;;;;;0.80;100.00;101932.69;4907225;29;19927;-78
2024/01/13 06:52:13;;;;;;;;;;;;;;;0.83;100.00;101932.47;4899618;29;20265;-77
2024/01/13 06:54:38;;;;;;;;;;;;;;;0.75;100.00;101920.59;4899861;29;19924;-77
2024/01/13 06:57:03;;;;;;;;;;;;;;;0.73;100.00;101919.84;4900783;29;20078;-78
2024/01/13 06:59:29;;;;;;;;;;;;;;;0.77;100.00;101895.78;4900581;29;19978;-77
2024/01/13 07:01:54;;;;;;;;;;;;;;;0.78;100.00;101908.09;4900401;29;20265;-78
2024/01/13 07:04:19;;;;;;;;;;;;;;;0.63;100.00;101921.44;4900969;29;20343;-78
2024/01/13 07:06:44;;;;;;;;;;;;;;;0.72;100.00;101907.53;4983303;23;20176;-77
2024/01/13 07:09:10;;;;;;;;;;;;;;;0.68;100.00;101911.38;4902504;29;20404;-78
2024/01/13 07:11:35;;;;;;;;;;;;;;;0.74;100.00;101915.41;4904884;29;19987;-76
2024/01/13 07:14:00;;;;;;;;;;;;;;;0.69;100.00;101915.72;4907559;29;20548;-76
2024/01/13 07:16:28;;;;;;;;;;;;;;;0.58;100.00;101900.56;4904474;29;20385;-81
2024/01/13 07:18:53;;;;;;;;;;;;;;;0.57;100.00;101895.34;4901754;29;19963;-77
2024/01/13 07:35:41;;;;;;;;;;;;;;;0.61;100.00;101891.56;4896491;29;20279;-79
2024/01/13 07:41:37;;;;;;;;;;;;;;;0.65;100.00;101866.53;4898218;29;20030;-80
2024/01/13 07:59:19;;;;;;;;;;;;;;;0.61;100.00;101854.44;4896372;29;19930;-77
2024/01/13 08:12:49;;;;;;;;;;;;;;;0.38;100.00;101862.19;4904660;23;19976;-75
2024/01/13 09:05:08;;;;;;;;;;;;;;;0.66;100.00;101847.03;5576238;23;19970;-77
2024/01/13 09:07:34;;;;;;;;;;;;;;;0.76;100.00;101847.25;4888027;23;19992;-78
2024/01/13 09:10:33;;;;;;;;;;;;;;;0.83;100.00;101856.44;4916199;29;19951;-78
2024/01/13 09:13:04;;;;;;;;;;;;;;;0.86;100.00;101856.22;4912182;29;19923;-78
2024/01/13 09:26:08;;;;;;;;;;;;;;;0.78;100.00;101847.13;5600956;23;19927;-77
2024/01/13 09:28:33;;;;;;;;;;;;;;;0.81;100.00;101833.66;4896417;29;19938;-77
2024/01/13 09:30:58;;;;;;;;;;;;;;;0.81;100.00;101829.19;4897370;29;19923;-76
2024/01/13 09:33:26;;;;;;;;;;;;;;;0.86;100.00;101828.88;4895836;29;19983;-76
2024/01/13 18:52:50;;;;;;;;;;;;;;;0.71;100.00;101330.78;4894380;29;19930;-75
2024/01/13 18:55:30;;;;;;;;;;;;;;;0.75;100.00;101334.88;4902894;23;19929;-75
2024/01/13 18:58:02;;;;;;;;;;;;;;;0.70;100.00;101329.13;4892077;29;20006;-75
2024/01/13 19:00:49;;;;;;;;;;;;;;;0.68;100.00;101320.44;4904150;29;20696;-75
2024/01/13 19:05:59;;;;;;;;;;;;;;;0.72;100.00;101323.69;4942322;23;19929;-75
2024/01/13 19:08:34;;;;;;;;;;;;;;;0.70;100.00;101331.75;4889442;29;19975;-75
2024/01/13 19:11:30;;;;;;;;;;;;;;;0.72;100.00;101324.50;4897848;29;19948;-75
2024/01/13 19:13:58;;;;;;;;;;;;;;;0.73;100.00;101312.13;4891685;29;20051;-75
2024/01/13 19:16:36;;;;;;;;;;;;;;;0.75;100.00;101313.69;4898421;29;19927;-75
2024/01/13 19:19:01;;;;;;;;;;;;;;;0.71;100.00;101306.09;4897952;29;19924;-75
2024/01/13 19:21:33;;;;;;;;;;;;;;;0.67;100.00;101304.66;4898136;29;20010;-74
2024/01/13 19:24:16;;;;;;;;;;;;;;;0.69;100.00;101300.94;4893793;29;19928;-75
2024/01/13 19:26:41;;;;;;;;;;;;;;;0.68;100.00;101306.31;4897588;29;19932;-75
2024/01/13 19:32:22;;;;;;;;;;;;;;;0.73;100.00;101304.16;4894637;29;20383;-75
2024/01/13 19:34:54;;;;;;;;;;;;;;;0.72;100.00;101294.53;4889334;29;19928;-75
2024/01/13 19:40:32;;;;;;;;;;;;;;;0.73;100.00;101296.22;4895977;29;19930;-75
2024/01/13 19:43:03;;;;;;;;;;;;;;;0.72;100.00;101302.47;4897044;29;19951;-75
2024/01/13 19:45:42;;;;;;;;;;;;;;;0.71;100.00;101298.97;4897032;29;20413;-75
2024/01/13 19:48:35;;;;;;;;;;;;;;;0.78;100.00;101298.50;4893654;29;19923;-75
2024/01/13 19:59:32;;;;;;;;;;;;;;;0.76;100.00;101272.13;5612629;23;20223;-76
2024/01/13 20:02:03;;;;;;;;;;;;;;;0.81;100.00;101277.06;4890561;29;19923;-76
2024/01/13 20:04:57;;;;;;;;;;;;;;;0.82;100.00;101265.50;4895975;29;20288;-76
2024/01/13 20:07:31;;;;;;;;;;;;;;;0.81;100.00;101261.97;4816595;29;20429;-76
2024/01/13 20:09:57;;;;;;;;;;;;;;;0.83;100.00;101264.53;4824324;29;20321;-76
2024/01/13 20:15:37;;;;;;;;;;;;;;;0.80;100.00;101256.81;4822138;29;19935;-76
2024/01/13 20:18:02;;;;;;;;;;;;;;;0.82;100.00;101254.88;4822713;29;20014;-76
2024/01/13 20:20:39;;;;;;;;;;;;;;;0.78;100.00;101256.94;4823211;29;20020;-76
2024/01/13 20:23:27;;;;;;;;;;;;;;;0.77;100.00;101244.66;4818774;29;19950;-76
2024/01/13 20:25:57;;;;;;;;;;;;;;;0.76;100.00;101245.63;4882823;23;19934;-76
2024/01/13 20:31:35;;;;;;;;;;;;;;;0.77;100.00;101234.06;4898530;29;19938;-75
2024/01/13 20:34:07;;;;;;;;;;;;;;;0.84;100.00;101237.88;4880816;29;19924;-76
2024/01/13 20:36:40;;;;;;;;;;;;;;;0.86;100.00;101221.88;4883953;29;19982;-76
2024/01/13 20:39:08;;;;;;;;;;;;;;;0.86;100.00;101220.06;4865434;29;20014;-76
2024/01/13 20:41:49;;;;;;;;;;;;;;;0.86;100.00;101229.84;4882303;29;19986;-76
2024/01/13 20:44:30;;;;;;;;;;;;;;;0.88;100.00;101214.66;4883352;29;19943;-76
2024/01/13 20:47:12;;;;;;;;;;;;;;;0.88;100.00;101212.00;4884237;29;19932;-76
2024/01/13 20:49:47;;;;;;;;;;;;;;;0.91;100.00;101209.06;4884624;29;19959;-77
2024/01/13 20:52:12;;;;;;;;;;;;;;;0.93;100.00;101211.63;4901338;29;19974;-77
2024/01/13 20:54:38;;;;;;;;;;;;;;;0.98;100.00;101209.41;4927191;23;20376;-77
2024/01/13 20:57:08;;;;;;;;;;;;;;;1.01;100.00;101202.06;4902129;29;20332;-77
2024/01/13 20:59:33;;;;;;;;;;;;;;;1.01;100.00;101204.72;4900631;29;19930;-77
2024/01/13 21:01:58;;;;;;;;;;;;;;;1.01;100.00;101193.25;4899079;29;19928;-77
2024/01/13 21:04:23;;;;;;;;;;;;;;;1.07;100.00;101198.06;4895676;29;19930;-77
2024/01/13 21:06:49;;;;;;;;;;;;;;;1.08;100.00;101189.16;4893667;29;19939;-77
2024/01/13 21:09:14;;;;;;;;;;;;;;;1.09;100.00;101177.56;4896644;29;19923;-77
2024/01/13 21:11:40;;;;;;;;;;;;;;;1.05;100.00;101182.31;4899830;29;19927;-77
2024/01/13 21:14:05;;;;;;;;;;;;;;;1.10;100.00;101178.41;4899159;29;20300;-76
2024/01/13 21:16:30;;;;;;;;;;;;;;;1.09;100.00;101179.38;4898539;29;20006;-76
2024/01/13 21:18:57;;;;;;;;;;;;;;;1.08;100.00;101183.00;4904692;29;19927;-76
2024/01/13 21:21:22;;;;;;;;;;;;;;;1.06;100.00;101170.69;4920431;29;19938;-76
2024/01/13 21:23:47;;;;;;;;;;;;;;;1.06;100.00;101164.56;4910472;29;20360;-76
2024/01/13 21:26:13;;;;;;;;;;;;;;;1.18;100.00;101168.03;4895696;29;19928;-76
2024/01/13 21:28:41;;;;;;;;;;;;;;;1.16;100.00;101159.34;4900460;29;20436;-76
2024/01/13 21:31:06;;;;;;;;;;;;;;;1.16;100.00;101167.31;4895772;29;19952;-76
2024/01/13 21:33:33;;;;;;;;;;;;;;;1.19;100.00;101162.56;4894124;29;20376;-76
2024/01/13 21:35:58;;;;;;;;;;;;;;;1.18;100.00;101160.88;4892504;29;19924;-77
2024/01/13 21:38:24;;;;;;;;;;;;;;;1.21;100.00;101167.78;4898021;29;20022;-77
2024/01/13 21:40:49;;;;;;;;;;;;;;;1.11;100.00;101167.69;4898697;29;19934;-75
2024/01/13 21:43:14;;;;;;;;;;;;;;;1.14;100.00;101161.28;4898347;29;19967;-78
2024/01/13 21:45:40;;;;;;;;;;;;;;;1.16;100.00;101159.34;4899852;29;19924;-78
2024/01/13 21:48:06;;;;;;;;;;;;;;;1.10;100.00;101160.69;4906662;29;19956;-77
2024/01/13 21:50:32;;;;;;;;;;;;;;;1.11;100.00;101156.22;4921300;29;19984;-77
2024/01/13 21:52:59;;;;;;;;;;;;;;;1.09;100.00;101143.09;4907613;29;19930;-78
2024/01/13 21:55:24;;;;;;;;;;;;;;;1.11;100.00;101145.63;4902232;29;19999;-77
2024/01/13 21:57:50;;;;;;;;;;;;;;;1.10;100.00;101142.13;4904368;29;20380;-77
2024/01/13 22:00:15;;;;;;;;;;;;;;;1.14;100.00;101146.22;4895978;29;20422;-78
2024/01/13 22:02:46;;;;;;;;;;;;;;;1.06;100.00;101140.72;4898682;29;20388;-78
2024/01/13 22:05:12;;;;;;;;;;;;;;;1.08;100.00;101130.81;4904865;23;20388;-77
2024/01/13 22:07:38;;;;;;;;;;;;;;;1.06;100.00;101130.09;4898628;29;19938;-77
2024/01/13 22:10:03;;;;;;;;;;;;;;;1.08;100.00;101129.97;4898343;29;20352;-77
2024/01/13 22:12:31;;;;;;;;;;;;;;;1.05;100.00;101129.28;4897805;29;19954;-77
2024/01/13 22:14:56;;;;;;;;;;;;;;;1.06;100.00;101127.44;4897632;29;19923;-78
2024/01/13 22:17:22;;;;;;;;;;;;;;;1.06;100.00;101120.31;4897835;29;19920;-78
2024/01/13 22:19:48;;;;;;;;;;;;;;;1.03;100.00;101123.25;4897671;29;20303;-78
2024/01/13 22:22:13;;;;;;;;;;;;;;;1.03;100.00;101119.75;4898487;29;19923;-78
2024/01/13 22:24:41;;;;;;;;;;;;;;;1.14;100.00;101121.50;4894348;29;20018;-77
2024/01/13 22:27:07;;;;;;;;;;;;;;;1.16;100.00;101117.75;4897549;29;20075;-77
2024/01/13 22:29:32;;;;;;;;;;;;;;;1.09;100.00;101118.38;4898163;29;20393;-78
2024/01/13 22:31:58;;;;;;;;;;;;;;;1.21;100.00;101117.38;4898222;29;20007;-77
2024/01/13 22:34:26;;;;;;;;;;;;;;;1.24;100.00;101114.44;4898066;29;19939;-78
2024/01/13 22:36:51;;;;;;;;;;;;;;;1.14;100.00;101108.25;4898511;29;20317;-78
2024/01/13 22:39:17;;;;;;;;;;;;;;;1.05;100.00;101118.66;4898017;29;20019;-78
2024/01/13 22:41:43;;;;;;;;;;;;;;;0.99;100.00;101108.56;4897371;29;20440;-77
2024/01/13 22:44:08;;;;;;;;;;;;;;;0.89;100.00;101104.97;4897710;29;19970;-77
2024/01/13 22:46:33;;;;;;;;;;;;;;;0.87;100.00;101102.47;4898083;29;20415;-78
2024/01/13 22:48:59;;;;;;;;;;;;;;;0.87;100.00;101106.94;4897417;29;20364;-78
2024/01/13 22:51:24;;;;;;;;;;;;;;;0.84;100.00;101093.94;4897428;29;19930;-78
2024/01/13 22:53:49;;;;;;;;;;;;;;;0.86;100.00;101094.66;4957518;23;19928;-78
2024/01/13 22:56:14;;;;;;;;;;;;;;;0.87;100.00;101091.03;4896401;29;19931;-78
2024/01/13 22:58:42;;;;;;;;;;;;;;;0.81;100.00;101086.25;4898211;29;19955;-77
2024/01/13 23:01:09;;;;;;;;;;;;;;;0.81;100.00;101081.75;4896984;29;19979;-77
2024/01/13 23:03:34;;;;;;;;;;;;;;;0.80;100.00;101092.50;4895723;29;20372;-78
2024/01/13 23:06:00;;;;;;;;;;;;;;;0.81;100.00;101086.25;4981922;23;19935;-77
2024/01/13 23:08:25;;;;;;;;;;;;;;;0.82;100.00;101082.63;4877945;29;19924;-78
2024/01/13 23:10:50;;;;;;;;;;;;;;;0.86;100.00;101090.19;4878614;29;19919;-77
2024/01/13 23:13:16;;;;;;;;;;;;;;;0.88;100.00;101088.25;4884506;29;20001;-77
2024/01/13 23:15:41;;;;;;;;;;;;;;;0.90;100.00;101088.97;4878733;29;19930;-77
2024/01/13 23:18:09;;;;;;;;;;;;;;;0.94;100.00;101086.06;4878465;29;19932;-77
2024/01/13 23:20:35;;;;;;;;;;;;;;;0.97;100.00;101081.34;4884649;29;20467;-78
2024/01/13 23:23:01;;;;;;;;;;;;;;;0.95;100.00;101088.56;4879452;29;19919;-78
2024/01/13 23:25:26;;;;;;;;;;;;;;;0.85;100.00;101077.06;4874652;29;20014;-78
2024/01/13 23:27:52;;;;;;;;;;;;;;;0.90;100.00;101074.84;4885950;29;19924;-77
2024/01/13 23:30:17;;;;;;;;;;;;;;;0.95;100.00;101077.97;4886692;23;19952;-78
2024/01/13 23:32:42;;;;;;;;;;;;;;;0.87;100.00;101083.91;4881621;29;20337;-77
2024/01/13 23:35:10;;;;;;;;;;;;;;;0.85;100.00;101069.94;4882824;29;19944;-78
2024/01/13 23:37:35;;;;;;;;;;;;;;;0.88;100.00;101067.03;4880541;29;19956;-78
2024/01/13 23:40:03;;;;;;;;;;;;;;;0.85;100.00;101067.28;4881691;29;19928;-78
2024/01/13 23:42:28;;;;;;;;;;;;;;;0.87;100.00;101067.19;4882602;29;19987;-77
2024/01/13 23:44:54;;;;;;;;;;;;;;;0.86;100.00;101057.56;4880923;29;20328;-77
2024/01/13 23:47:19;;;;;;;;;;;;;;;0.80;100.00;101056.22;4880839;29;19923;-77
2024/01/13 23:49:44;;;;;;;;;;;;;;;0.79;100.00;101043.97;4882997;29;19998;-77
2024/01/13 23:52:10;;;;;;;;;;;;;;;0.79;100.00;101051.06;4880485;29;20056;-77
2024/01/13 23:54:35;;;;;;;;;;;;;;;0.79;100.00;101056.38;4881397;29;19934;-77
2024/01/13 23:57:00;;;;;;;;;;;;;;;0.75;100.00;101053.97;4882974;29;19947;-78
2024/01/13 23:59:25;;;;;;;;;;;;;;;0.83;100.00;101055.16;4881153;29;20042;-78
